Missoula, MT

2:48 AM MDT on October 25, 2014 (GMT -0600)
Franklin to the Fort | Change Station
CLOSE
Current Station
Personal Weather Station
Location: Missoula, MT
Elevation: 3200 ft
Nearby Weather Stations

Elev 3200 ft 46.86 °N, 114.02 °W | Updated 7 seconds ago

Clear
Clear
42.0 °F
Feels Like 42 °F
N
0.0
Wind Variable Wind from SSW
Gusts 0.0 mph

Today
High -- | Low -- °F
--% Chance of Precip.
Yesterday
High -- | Low -- °F
Precip. -- in
8:08 AM 6:31 PM
New Moon, 2% visible
Pressure 30.03 in
Visibility 6.0 miles
Clouds Few 2800 ft
Windchill 42 °F
Dew Point 42 °F
Humidity 100%
Rainfall 0.00 in
Snow Depth Not available.
UV 0 out of 12
Pollen 1.00 out of 12
Air Quality Not available.
Flu Activity No Activity
SPECI KMSO 250821Z AUTO 12006KT 6SM BR FEW028 07/07 A3003 RMK AO2 T00670067

More Conditions Fewer Conditions

Pressure 30.03 in
Visibility 6.0 miles
Clouds Few 2800 ft
Windchill 42 °F
Dew Point 42 °F
Humidity 100%
Rainfall 0.00 in
Snow Depth Not available.
UV 0 out of 12
Pollen 1.00 out of 12
Air Quality Not available.
Flu Activity No Activity
SPECI KMSO 250821Z AUTO 12006KT 6SM BR FEW028 07/07 A3003 RMK AO2 T00670067

More Conditions Fewer Conditions

10-Day Weather Forecast

Almanac

Astronomy

Oct. 25, 2014 Rise Set
Actual Time 8:08 AM MDT 6:31 PM MDT
Civil Twilight 7:37 AM MDT 7:02 PM MDT
Nautical Twilight 7:01 AM MDT 7:37 PM MDT
Astronomical Twilight 6:26 AM MDT 8:13 PM MDT
Moon 9:56 AM MDT 7:51 PM MDT
Length of Visible Light 11h 25m
Length of Day
10h 22m
Tomorrow will be 3m 6s shorter.
New Moon, 2% of the Moon is Illuminated
Today
New Moon
Oct 30
First Quarter
Nov 6
Full
Nov 14
Last Quarter
Nov 22
New

Today's Extremes

State Highs State Lows

Community

WunderPhotos

Upload Photos

1,764,791 photos uploaded!

Nearby

Snow Depth

Station Depth Elevation
Stuart Mountain 1 in 7400 ft
North Fork Jocko 0 in 6330 ft
Lubrecht Flume 0 in 4680 ft
North Fork Elk Creek 0 in 6250 ft
Combination 0 in 5600 ft

Earthquake Activity

City Distance Mag. Time & Date
No recent earthquake activity has been reported nearby.
Minimum magnitude displayed is 2.5.

Coastal Water Temperatures

Place Temperature
No Stations Reporting

Nearby Weather Stations